Monday, September 24, 2018, 9:28 PM GMT
Back to Local

CYTR, Trenton, Ont.

Location: , , Canada Lat: 44.117
Local Time: 9:28 PM GMT (21:28 GMT) Lon: -77.533
Time Zone: GMT Elev: 278 ft

Show me the last for .
Show Coded

Time T Td Feel RH Dir Speed Gust Alt SLP Vis Weather Sky Remarks
2018-09-24 21:00 66 52 - 59 110° 6 - 30.34 30.34 15 OVC250 None
2018-09-24 20:00 66 52 - 59 110° 9 - 30.35 30.36 15 BKN250 None
2018-09-24 19:00 64 50 - 59 80° 10 - 30.37 30.38 15 SCT250 None
2018-09-24 18:00 64 50 - 59 80° 7 - 30.39 30.40 15 FEW250 None
2018-09-24 17:00 61 46 - 59 70° 10 - 30.41 30.42 15 FEW250 None
2018-09-24 16:00 59 45 - 58 70° 9 - 30.43 30.44 15 FEW032 FEW250 None
2018-09-24 15:00 57 43 - 58 80° 8 - 30.45 30.46 15 FEW028 FEW250 None
2018-09-24 14:00 52 39 - 62 70° 10 - 30.46 30.47 15 FEW028 FEW250 None
2018-09-24 13:00 48 37 45 66 70° 8 - 30.46 30.47 15 FEW250 None
2018-09-24 12:00 45 37 37 75 60° 9 17 30.45 30.46 15 FEW250 None
2018-09-24 11:00 45 39 39 81 60° 10 - 30.44 30.45 15 FEW250 None
2018-09-24 10:00 43 41 38 93 50° 8 - 30.43 30.44 15 CLR None
2018-09-24 09:00 43 41 38 93 50° 8 - 30.42 30.42 15 CLR None
2018-09-24 08:00 43 41 38 93 30° 8 - 30.41 30.42 15 CLR None
2018-09-24 07:00 43 41 39 93 40° 7 - 30.41 30.41 15 CLR None
2018-09-24 06:00 45 41 40 87 40° 9 - 30.40 30.40 15 CLR None
2018-09-24 05:00 45 41 40 87 50° 8 - 30.40 30.41 15 CLR None
2018-09-24 04:00 46 41 41 81 60° 10 - 30.39 30.40 15 FEW035 None
2018-09-24 03:00 50 45 45 81 60° 13 - 30.37 30.38 15 FEW035 None
2018-09-24 02:00 52 48 - 87 40° 18 - 30.34 30.35 15 FEW035 None
2018-09-24 01:00 52 50 - 93 30° 7 - 30.31 30.32 15 FEW140 None
2018-09-24 00:00 55 52 - 87 50° 3 - 30.29 30.29 15 FEW140 None
2018-09-23 23:00 59 52 - 77 180° 3 - 30.27 30.28 15 FEW140 None
2018-09-23 22:00 63 52 - 67 190° 6 - 30.25 30.26 15 FEW035 FEW100 None

Support USWX by starting your Amazon purchase here.